sensor_id;sensor_type;location;lat;lon;timestamp;pressure;altitude;pressure_sealevel;temperature;humidity
75759;BME280;64371;47.566;19.086;2023-03-23T00:00:32;100322.28;;;6.52;77.80
75759;BME280;64371;47.566;19.086;2023-03-23T00:03:33;100324.50;;;6.33;77.77
75759;BME280;64371;47.566;19.086;2023-03-23T00:06:35;100321.28;;;6.21;77.96
75759;BME280;64371;47.566;19.086;2023-03-23T00:09:37;100316.22;;;6.10;78.37
75759;BME280;64371;47.566;19.086;2023-03-23T00:12:41;100317.81;;;6.16;78.99
75759;BME280;64371;47.566;19.086;2023-03-23T00:15:43;100308.78;;;5.96;79.80
75759;BME280;64371;47.566;19.086;2023-03-23T00:18:49;100310.16;;;6.04;79.80
75759;BME280;64371;47.566;19.086;2023-03-23T00:21:53;100306.28;;;6.12;79.31
75759;BME280;64371;47.566;19.086;2023-03-23T00:24:54;100305.97;;;6.08;79.35
75759;BME280;64371;47.566;19.086;2023-03-23T00:27:56;100313.72;;;5.93;79.64
75759;BME280;64371;47.566;19.086;2023-03-23T00:31:03;100306.63;;;5.88;79.78
75759;BME280;64371;47.566;19.086;2023-03-23T00:34:05;100305.09;;;5.92;80.12
75759;BME280;64371;47.566;19.086;2023-03-23T00:37:07;100305.09;;;5.92;79.89
75759;BME280;64371;47.566;19.086;2023-03-23T00:40:09;100297.63;;;6.11;79.05
75759;BME280;64371;47.566;19.086;2023-03-23T00:43:11;100304.78;;;6.21;77.98
75759;BME280;64371;47.566;19.086;2023-03-23T00:46:14;100299.00;;;6.19;79.02
75759;BME280;64371;47.566;19.086;2023-03-23T00:49:19;100310.84;;;6.26;77.86
75759;BME280;64371;47.566;19.086;2023-03-23T00:52:20;100299.50;;;6.16;78.64
75759;BME280;64371;47.566;19.086;2023-03-23T00:55:22;100292.31;;;6.01;79.14
75759;BME280;64371;47.566;19.086;2023-03-23T00:58:23;100286.81;;;5.97;79.72
75759;BME280;64371;47.566;19.086;2023-03-23T01:01:24;100292.25;;;5.91;80.71
75759;BME280;64371;47.566;19.086;2023-03-23T01:04:25;100286.41;;;5.84;81.23
75759;BME280;64371;47.566;19.086;2023-03-23T01:07:29;100288.84;;;5.90;81.33
75759;BME280;64371;47.566;19.086;2023-03-23T01:10:32;100287.94;;;6.07;79.90
75759;BME280;64371;47.566;19.086;2023-03-23T01:13:34;100290.53;;;6.07;79.43
75759;BME280;64371;47.566;19.086;2023-03-23T01:16:35;100286.78;;;5.92;80.48
75759;BME280;64371;47.566;19.086;2023-03-23T01:19:36;100284.31;;;5.81;81.47
75759;BME280;64371;47.566;19.086;2023-03-23T01:22:39;100291.75;;;5.67;82.77
75759;BME280;64371;47.566;19.086;2023-03-23T01:25:40;100280.22;;;5.63;82.41
75759;BME280;64371;47.566;19.086;2023-03-23T01:28:42;100286.78;;;5.39;82.81
75759;BME280;64371;47.566;19.086;2023-03-23T01:31:43;100273.59;;;5.29;82.98
75759;BME280;64371;47.566;19.086;2023-03-23T01:34:45;100282.47;;;5.28;83.33
75759;BME280;64371;47.566;19.086;2023-03-23T01:37:46;100280.78;;;5.17;83.66
75759;BME280;64371;47.566;19.086;2023-03-23T01:40:48;100276.59;;;5.16;83.36
75759;BME280;64371;47.566;19.086;2023-03-23T01:47:31;100279.13;;;5.32;82.85
75759;BME280;64371;47.566;19.086;2023-03-23T01:50:37;100269.91;;;5.52;82.48
75759;BME280;64371;47.566;19.086;2023-03-23T01:53:57;100272.38;;;5.63;80.98
75759;BME280;64371;47.566;19.086;2023-03-23T01:57:03;100273.00;;;5.49;81.95
75759;BME280;64371;47.566;19.086;2023-03-23T02:00:07;100266.59;;;5.34;82.58
75759;BME280;64371;47.566;19.086;2023-03-23T02:03:15;100270.78;;;5.35;82.54
75759;BME280;64371;47.566;19.086;2023-03-23T02:06:17;100266.13;;;5.43;82.88
75759;BME280;64371;47.566;19.086;2023-03-23T02:09:38;100269.53;;;5.43;82.98
75759;BME280;64371;47.566;19.086;2023-03-23T02:12:39;100272.03;;;5.28;83.14
75759;BME280;64371;47.566;19.086;2023-03-23T02:15:52;100265.00;;;5.33;84.81
75759;BME280;64371;47.566;19.086;2023-03-23T02:38:37;100292.03;;;5.17;88.25
75759;BME280;64371;47.566;19.086;2023-03-23T02:41:51;100286.53;;;5.19;87.71
75759;BME280;64371;47.566;19.086;2023-03-23T02:44:54;100289.28;;;5.29;86.44
75759;BME280;64371;47.566;19.086;2023-03-23T02:48:01;100288.00;;;5.31;85.51
75759;BME280;64371;47.566;19.086;2023-03-23T02:51:04;100286.66;;;5.29;85.58
75759;BME280;64371;47.566;19.086;2023-03-23T02:54:06;100290.38;;;5.11;85.86
75759;BME280;64371;47.566;19.086;2023-03-23T02:57:09;100296.72;;;4.94;86.58
75759;BME280;64371;47.566;19.086;2023-03-23T03:00:15;100295.50;;;5.01;86.48
75759;BME280;64371;47.566;19.086;2023-03-23T03:03:20;100287.28;;;5.14;85.51
75759;BME280;64371;47.566;19.086;2023-03-23T03:09:52;100283.22;;;5.02;85.94
75759;BME280;64371;47.566;19.086;2023-03-23T03:12:59;100292.75;;;4.91;86.08
75759;BME280;64371;47.566;19.086;2023-03-23T03:19:20;100293.00;;;4.90;86.75
75759;BME280;64371;47.566;19.086;2023-03-23T03:22:28;100292.38;;;4.83;85.55
75759;BME280;64371;47.566;19.086;2023-03-23T03:25:31;100288.47;;;4.63;86.22
75759;BME280;64371;47.566;19.086;2023-03-23T03:28:33;100297.50;;;4.56;87.00
75759;BME280;64371;47.566;19.086;2023-03-23T03:31:38;100300.97;;;4.61;87.10
75759;BME280;64371;47.566;19.086;2023-03-23T03:34:40;100302.84;;;5.04;84.29
75759;BME280;64371;47.566;19.086;2023-03-23T03:37:43;100305.56;;;5.14;83.57
75759;BME280;64371;47.566;19.086;2023-03-23T03:40:44;100316.63;;;5.00;83.85
75759;BME280;64371;47.566;19.086;2023-03-23T03:43:46;100314.38;;;4.87;84.56
75759;BME280;64371;47.566;19.086;2023-03-23T03:46:47;100305.91;;;4.80;85.13
75759;BME280;64371;47.566;19.086;2023-03-23T03:49:48;100309.38;;;4.85;85.04
75759;BME280;64371;47.566;19.086;2023-03-23T03:52:49;100308.78;;;4.78;84.95
75759;BME280;64371;47.566;19.086;2023-03-23T03:55:50;100309.25;;;4.75;85.10
75759;BME280;64371;47.566;19.086;2023-03-23T03:58:56;100309.06;;;4.60;85.19
75759;BME280;64371;47.566;19.086;2023-03-23T04:02:19;100312.63;;;4.54;85.49
75759;BME280;64371;47.566;19.086;2023-03-23T04:05:23;100315.16;;;4.49;85.40
75759;BME280;64371;47.566;19.086;2023-03-23T04:08:25;100316.75;;;4.50;86.15
75759;BME280;64371;47.566;19.086;2023-03-23T04:11:28;100320.50;;;4.76;84.55
75759;BME280;64371;47.566;19.086;2023-03-23T04:14:43;100318.97;;;4.80;83.92
75759;BME280;64371;47.566;19.086;2023-03-23T04:17:45;100325.97;;;4.74;84.92
75759;BME280;64371;47.566;19.086;2023-03-23T04:20:47;100341.50;;;4.64;85.56
75759;BME280;64371;47.566;19.086;2023-03-23T04:23:51;100319.59;;;4.65;84.80
75759;BME280;64371;47.566;19.086;2023-03-23T04:26:54;100317.44;;;4.62;84.81
75759;BME280;64371;47.566;19.086;2023-03-23T04:30:00;100319.44;;;4.55;85.57
75759;BME280;64371;47.566;19.086;2023-03-23T04:33:15;100315.47;;;4.52;86.06
75759;BME280;64371;47.566;19.086;2023-03-23T04:36:21;100320.78;;;4.57;86.06
75759;BME280;64371;47.566;19.086;2023-03-23T04:39:46;100316.53;;;4.73;84.99
75759;BME280;64371;47.566;19.086;2023-03-23T04:42:49;100323.28;;;4.69;85.66
75759;BME280;64371;47.566;19.086;2023-03-23T04:46:16;100322.81;;;4.55;86.01
75759;BME280;64371;47.566;19.086;2023-03-23T04:49:20;100323.22;;;4.64;85.84
75759;BME280;64371;47.566;19.086;2023-03-23T04:52:27;100325.59;;;4.49;86.62
75759;BME280;64371;47.566;19.086;2023-03-23T04:55:36;100323.63;;;4.39;87.65
75759;BME280;64371;47.566;19.086;2023-03-23T04:58:38;100322.91;;;4.44;87.58
75759;BME280;64371;47.566;19.086;2023-03-23T05:01:59;100326.72;;;4.53;87.47
75759;BME280;64371;47.566;19.086;2023-03-23T05:05:02;100326.31;;;4.44;87.57
75759;BME280;64371;47.566;19.086;2023-03-23T05:08:04;100333.03;;;4.57;87.31
75759;BME280;64371;47.566;19.086;2023-03-23T05:11:09;100332.03;;;4.80;86.90
75759;BME280;64371;47.566;19.086;2023-03-23T05:14:14;100332.84;;;5.02;85.75
75759;BME280;64371;47.566;19.086;2023-03-23T05:17:18;100327.94;;;5.27;84.39
75759;BME280;64371;47.566;19.086;2023-03-23T05:20:22;100336.50;;;5.44;83.40
75759;BME280;64371;47.566;19.086;2023-03-23T05:23:37;100329.78;;;5.80;82.56
75759;BME280;64371;47.566;19.086;2023-03-23T05:26:50;100329.22;;;5.99;81.79
75759;BME280;64371;47.566;19.086;2023-03-23T05:30:05;100321.75;;;6.50;79.63
75759;BME280;64371;47.566;19.086;2023-03-23T05:33:08;100319.75;;;6.67;78.70
75759;BME280;64371;47.566;19.086;2023-03-23T05:36:19;100322.81;;;7.06;77.61
75759;BME280;64371;47.566;19.086;2023-03-23T05:39:42;100325.06;;;7.44;75.35
75759;BME280;64371;47.566;19.086;2023-03-23T05:43:10;100324.38;;;7.89;72.87
75759;BME280;64371;47.566;19.086;2023-03-23T05:46:37;100300.47;;;8.36;71.36
75759;BME280;64371;47.566;19.086;2023-03-23T05:49:38;100312.53;;;8.62;70.20
75759;BME280;64371;47.566;19.086;2023-03-23T05:52:43;100317.28;;;8.55;70.46
75759;BME280;64371;47.566;19.086;2023-03-23T05:55:47;100321.75;;;8.44;71.25
75759;BME280;64371;47.566;19.086;2023-03-23T05:59:03;100314.91;;;8.58;70.73
75759;BME280;64371;47.566;19.086;2023-03-23T06:02:08;100318.69;;;9.06;67.39
75759;BME280;64371;47.566;19.086;2023-03-23T06:05:10;100320.09;;;9.86;64.93
75759;BME280;64371;47.566;19.086;2023-03-23T06:08:14;100326.00;;;10.07;63.50
75759;BME280;64371;47.566;19.086;2023-03-23T06:11:16;100327.03;;;9.72;65.16
75759;BME280;64371;47.566;19.086;2023-03-23T06:14:36;100331.75;;;9.75;65.43
75759;BME280;64371;47.566;19.086;2023-03-23T06:17:39;100330.88;;;9.90;66.08
75759;BME280;64371;47.566;19.086;2023-03-23T06:20:41;100328.38;;;9.70;66.01
75759;BME280;64371;47.566;19.086;2023-03-23T06:24:00;100319.03;;;10.26;64.01
75759;BME280;64371;47.566;19.086;2023-03-23T06:27:04;100327.75;;;11.21;60.48
75759;BME280;64371;47.566;19.086;2023-03-23T06:30:06;100318.75;;;11.83;55.26
75759;BME280;64371;47.566;19.086;2023-03-23T06:33:07;100324.16;;;12.11;54.83
75759;BME280;64371;47.566;19.086;2023-03-23T06:36:30;100319.53;;;11.84;55.02
75759;BME280;64371;47.566;19.086;2023-03-23T06:39:44;100322.56;;;12.42;53.36
75759;BME280;64371;47.566;19.086;2023-03-23T06:42:56;100324.25;;;12.65;52.49
75759;BME280;64371;47.566;19.086;2023-03-23T06:46:13;100323.38;;;12.83;51.72
75759;BME280;64371;47.566;19.086;2023-03-23T06:49:14;100331.00;;;12.98;51.45
75759;BME280;64371;47.566;19.086;2023-03-23T06:52:24;100325.22;;;12.96;51.47
75759;BME280;64371;47.566;19.086;2023-03-23T06:55:27;100328.41;;;13.12;50.96
75759;BME280;64371;47.566;19.086;2023-03-23T06:58:29;100331.63;;;13.09;51.04
75759;BME280;64371;47.566;19.086;2023-03-23T07:01:30;100333.69;;;13.61;49.82
75759;BME280;64371;47.566;19.086;2023-03-23T07:04:35;100333.97;;;14.18;47.30
75759;BME280;64371;47.566;19.086;2023-03-23T07:07:47;100334.34;;;13.80;48.17
75759;BME280;64371;47.566;19.086;2023-03-23T07:11:05;100334.31;;;14.25;47.08
75759;BME280;64371;47.566;19.086;2023-03-23T07:14:07;100335.47;;;14.54;45.85
75759;BME280;64371;47.566;19.086;2023-03-23T07:17:09;100339.81;;;14.28;46.81
75759;BME280;64371;47.566;19.086;2023-03-23T07:20:17;100344.06;;;14.99;45.37
75759;BME280;64371;47.566;19.086;2023-03-23T07:23:20;100347.72;;;15.20;44.88
75759;BME280;64371;47.566;19.086;2023-03-23T07:26:41;100351.56;;;14.97;44.34
75759;BME280;64371;47.566;19.086;2023-03-23T07:29:43;100352.72;;;15.13;45.30
75759;BME280;64371;47.566;19.086;2023-03-23T07:32:52;100355.66;;;15.03;45.36
75759;BME280;64371;47.566;19.086;2023-03-23T07:35:54;100348.75;;;15.02;45.00
75759;BME280;64371;47.566;19.086;2023-03-23T07:38:56;100358.63;;;15.67;43.68
75759;BME280;64371;47.566;19.086;2023-03-23T07:41:59;100359.41;;;15.93;43.25
75759;BME280;64371;47.566;19.086;2023-03-23T07:45:16;100367.34;;;15.59;43.21
75759;BME280;64371;47.566;19.086;2023-03-23T07:48:17;100363.44;;;16.25;41.95
75759;BME280;64371;47.566;19.086;2023-03-23T07:51:19;100361.44;;;15.96;42.15
75759;BME280;64371;47.566;19.086;2023-03-23T07:54:25;100367.63;;;16.51;41.76
75759;BME280;64371;47.566;19.086;2023-03-23T07:57:26;100362.00;;;16.53;41.33
75759;BME280;64371;47.566;19.086;2023-03-23T08:00:28;100365.84;;;16.73;41.41
75759;BME280;64371;47.566;19.086;2023-03-23T08:03:31;100357.56;;;16.66;41.06
75759;BME280;64371;47.566;19.086;2023-03-23T08:06:47;100368.72;;;16.33;41.57
75759;BME280;64371;47.566;19.086;2023-03-23T08:10:12;100366.88;;;17.18;40.63
75759;BME280;64371;47.566;19.086;2023-03-23T08:13:34;100353.66;;;17.01;39.95
75759;BME280;64371;47.566;19.086;2023-03-23T08:17:10;100364.59;;;17.08;40.05
75759;BME280;64371;47.566;19.086;2023-03-23T08:20:22;100368.47;;;16.81;40.60
75759;BME280;64371;47.566;19.086;2023-03-23T08:23:45;100365.34;;;17.67;39.15
75759;BME280;64371;47.566;19.086;2023-03-23T08:27:05;100366.97;;;17.01;39.44
75759;BME280;64371;47.566;19.086;2023-03-23T08:30:38;100374.03;;;16.97;39.78
75759;BME280;64371;47.566;19.086;2023-03-23T08:34:02;100371.16;;;17.40;39.02
75759;BME280;64371;47.566;19.086;2023-03-23T08:37:26;100363.91;;;17.90;37.70
75759;BME280;64371;47.566;19.086;2023-03-23T08:40:37;100364.81;;;17.73;38.32
75759;BME280;64371;47.566;19.086;2023-03-23T08:43:56;100364.22;;;18.09;37.23
75759;BME280;64371;47.566;19.086;2023-03-23T08:47:28;100360.75;;;17.55;38.05
75759;BME280;64371;47.566;19.086;2023-03-23T08:50:46;100367.88;;;17.84;37.80
75759;BME280;64371;47.566;19.086;2023-03-23T08:54:06;100368.25;;;18.15;36.99
75759;BME280;64371;47.566;19.086;2023-03-23T08:57:21;100360.72;;;18.29;36.45
75759;BME280;64371;47.566;19.086;2023-03-23T09:00:41;100360.41;;;18.76;36.24
75759;BME280;64371;47.566;19.086;2023-03-23T09:03:53;100359.22;;;18.40;36.08
75759;BME280;64371;47.566;19.086;2023-03-23T09:07:09;100356.63;;;18.89;35.21
75759;BME280;64371;47.566;19.086;2023-03-23T09:10:12;100354.19;;;18.84;35.63
75759;BME280;64371;47.566;19.086;2023-03-23T09:13:14;100347.28;;;18.26;36.33
75759;BME280;64371;47.566;19.086;2023-03-23T09:16:15;100358.06;;;17.97;36.87
75759;BME280;64371;47.566;19.086;2023-03-23T09:19:17;100343.03;;;18.58;35.23
75759;BME280;64371;47.566;19.086;2023-03-23T09:22:34;100337.34;;;18.26;35.85
75759;BME280;64371;47.566;19.086;2023-03-23T09:25:35;100339.47;;;18.66;36.06
75759;BME280;64371;47.566;19.086;2023-03-23T09:28:37;100338.81;;;18.93;35.27
75759;BME280;64371;47.566;19.086;2023-03-23T09:31:38;100337.00;;;19.21;34.96
75759;BME280;64371;47.566;19.086;2023-03-23T09:34:41;100337.72;;;19.70;34.65
75759;BME280;64371;47.566;19.086;2023-03-23T09:37:45;100338.47;;;19.06;34.87
75759;BME280;64371;47.566;19.086;2023-03-23T09:40:54;100345.75;;;19.98;33.59
75759;BME280;64371;47.566;19.086;2023-03-23T09:44:01;100343.44;;;20.39;32.54
75759;BME280;64371;47.566;19.086;2023-03-23T09:47:10;100348.28;;;20.06;33.30
75759;BME280;64371;47.566;19.086;2023-03-23T09:50:18;100338.84;;;19.69;34.01
75759;BME280;64371;47.566;19.086;2023-03-23T09:53:24;100342.25;;;20.09;33.57
75759;BME280;64371;47.566;19.086;2023-03-23T09:56:31;100342.06;;;20.45;33.27
75759;BME280;64371;47.566;19.086;2023-03-23T10:02:54;100329.16;;;19.92;33.83
75759;BME280;64371;47.566;19.086;2023-03-23T10:05:57;100317.13;;;19.58;34.41
75759;BME280;64371;47.566;19.086;2023-03-23T10:09:02;100320.84;;;19.81;34.35
75759;BME280;64371;47.566;19.086;2023-03-23T10:12:27;100319.22;;;19.65;34.80
